Thursday, November 23, 2017, 6:13 PM GMT
Back to Local

CYTZ, Toronto Island Airport Automated Reporting Station

Location: , , Canada Lat: 43.633
Local Time: 6:13 PM GMT (18:13 GMT) Lon: -79.4
Time Zone: GMT Elev: 252 ft

Show me the last for .
Show Decoded

2017-11-23 18:00 METAR CYTZ 231800Z AUTO 23012G18KT 9SM OVC060 04/M04 A2997 RMK SLP154 =
2017-11-23 17:00 METAR CYTZ 231700Z AUTO 25014G21KT 9SM OVC065 03/M04 A3000 RMK SLP164 =
2017-11-23 16:00 METAR CYTZ 231600Z AUTO 24014KT 9SM OVC065 02/M05 A3003 RMK SLP175 =
2017-11-23 15:00 METAR CYTZ 231500Z AUTO 23012KT 9SM OVC080 02/M05 A3005 RMK SLP181 =
2017-11-23 14:00 METAR CYTZ 231400Z AUTO 25012KT 9SM OVC095 01/M06 A3009 RMK SLP193 =
2017-11-23 13:00 METAR CYTZ 231300Z AUTO 26010KT 9SM SCT045 OVC100 01/M06 A3009 RMK SLP195 =
2017-11-23 12:00 METAR CYTZ 231200Z AUTO 25009KT 9SM OVC043 00/M07 A3009 RMK SLP195 =
2017-11-23 11:00 METAR CYTZ 231100Z AUTO 25013KT 9SM OVC041 00/M07 A3010 RMK SLP198 =
2017-11-23 10:00 METAR CYTZ 231000Z AUTO 24014KT 9SM OVC041 00/M06 A3012 RMK SLP203 =
2017-11-23 09:00 METAR CYTZ 230900Z AUTO 25013KT 9SM OVC043 01/M05 A3013 RMK SLP208 =
2017-11-23 08:00 METAR CYTZ 230800Z AUTO 26013KT 9SM OVC041 00/M06 A3014 RMK SLP211 =
2017-11-23 07:00 METAR CYTZ 230700Z AUTO 27012KT 9SM OVC041 00/M05 A3015 RMK SLP213 =
2017-11-23 06:00 METAR CYTZ 230600Z AUTO 26010KT 9SM OVC041 M00/M06 A3016 RMK SLP218 =
2017-11-23 05:00 METAR CYTZ 230500Z AUTO 25010KT 9SM OVC043 M00/M06 A3017 RMK SLP222 =
2017-11-23 04:00 METAR CYTZ 230400Z AUTO 24009KT 9SM OVC041 M00/M06 A3018 RMK SLP225 =
2017-11-23 03:00 METAR CYTZ 230300Z AUTO 25007KT 9SM OVC045 M00/M07 A3020 RMK SLP230 =
2017-11-23 02:00 METAR CYTZ 230200Z AUTO 25009KT 9SM OVC045 M01/M07 A3021 RMK SLP234 =
2017-11-23 01:00 METAR CYTZ 230100Z AUTO 26009KT 9SM BKN043 M01/M09 A3022 RMK SLP237 =
2017-11-23 00:00 METAR CYTZ 230000Z AUTO 28010KT 9SM SCT039 M02/M10 A3022 RMK SLP239 =
2017-11-22 23:00 METAR CYTZ 222300Z AUTO 31012G17KT 9SM OVC035 M01/M09 A3023 RMK SLP241 =
2017-11-22 22:00 METAR CYTZ 222200Z AUTO 31013G19KT 9SM OVC035 M01/M09 A3021 RMK SLP236 =
2017-11-22 21:00 METAR CYTZ 222100Z AUTO 32012G22KT 9SM OVC039 M01/M09 A3020 RMK SLP233 =
2017-11-22 20:00 METAR CYTZ 222000Z AUTO 31013G18KT 9SM OVC043 00/M09 A3018 RMK SLP224 =
2017-11-22 19:00 METAR CYTZ 221900Z AUTO 28013G19KT 9SM OVC041 01/M08 A3015 RMK SLP214 =

Support USWX by starting your Amazon purchase here.